Terminal Aerodrome Forecast
Issued by NWS

Home | Current Version | Previous Version | Text Only | Print | Product List | Glossary Off
Versions: 1 2 3 4 5 6 7 8 9 10 11 12 13 14 15

000
FTUS43 KIWX 220400 AAA
TAFSBN
TAF AMD
KSBN 220429Z 2204/2224 28010KT 3SM BR SCT006 BKN050
      TEMPO 2204/2206 BKN006
     FM220700 31012KT P6SM BKN035
     FM221300 32017G24KT P6SM SKC=

USA.gov is the U.S. government's official web portal to all federal, state and local government web resources and services.